createdAt,value
2023-05-08T00:02:09.645Z,11.79
2023-05-08T00:04:36.334Z,11.82
2023-05-08T00:07:02.801Z,11.82
2023-05-08T00:09:29.311Z,11.83
2023-05-08T00:11:55.761Z,11.80
2023-05-08T00:14:22.228Z,11.82
2023-05-08T00:16:48.848Z,11.80
2023-05-08T00:19:15.345Z,11.81
2023-05-08T00:21:42.160Z,11.79
2023-05-08T00:24:08.761Z,11.79
2023-05-08T00:26:35.253Z,11.76
2023-05-08T00:29:01.730Z,11.75
2023-05-08T00:31:28.231Z,11.73
2023-05-08T00:33:54.718Z,11.73
2023-05-08T00:36:21.188Z,11.66
2023-05-08T00:38:47.893Z,11.67
2023-05-08T00:41:14.431Z,11.64
2023-05-08T00:43:40.947Z,11.64
2023-05-08T00:46:09.815Z,11.59
2023-05-08T00:48:36.750Z,11.63
2023-05-08T00:51:06.497Z,11.60
2023-05-08T00:53:35.957Z,11.56
2023-05-08T00:56:02.595Z,11.50
2023-05-08T00:58:30.225Z,11.48
2023-05-08T01:00:57.517Z,11.44
2023-05-08T01:03:25.456Z,11.36
2023-05-08T01:05:52.072Z,11.32
2023-05-08T01:08:18.527Z,11.30
2023-05-08T01:10:57.083Z,11.33
2023-05-08T01:13:46.753Z,11.29
2023-05-08T01:16:17.182Z,11.29
2023-05-08T01:18:56.880Z,11.30
2023-05-08T01:21:46.174Z,11.28
2023-05-08T01:24:25.777Z,11.28
2023-05-08T01:27:11.072Z,11.27
2023-05-08T01:30:05.835Z,11.25
2023-05-08T01:32:41.312Z,11.24
2023-05-08T01:35:10.717Z,11.21
2023-05-08T01:37:50.052Z,11.10
2023-05-08T01:40:34.265Z,11.05
2023-05-08T01:43:14.433Z,11.03
2023-05-08T01:45:46.860Z,10.95
2023-05-08T01:48:38.647Z,10.96
2023-05-08T01:51:14.281Z,10.92
2023-05-08T01:53:49.731Z,10.89
2023-05-08T01:56:22.212Z,10.87
2023-05-08T01:58:54.246Z,10.85
2023-05-08T02:01:24.341Z,10.80
2023-05-08T02:03:53.004Z,10.79
2023-05-08T02:06:22.000Z,10.80
2023-05-08T02:08:50.250Z,10.78
2023-05-08T02:11:18.193Z,10.81
2023-05-08T02:13:47.879Z,10.75
2023-05-08T02:16:15.234Z,10.63
2023-05-08T02:18:51.055Z,10.61
2023-05-08T02:21:18.714Z,10.61
2023-05-08T02:23:47.002Z,10.64
2023-05-08T02:26:16.095Z,10.68
2023-05-08T02:28:43.319Z,10.70
2023-05-08T02:31:12.077Z,10.69
2023-05-08T02:33:41.978Z,10.64
2023-05-08T02:36:10.840Z,10.62
2023-05-08T02:38:39.880Z,10.61
2023-05-08T02:41:07.883Z,10.60
2023-05-08T02:43:34.996Z,10.63
2023-05-08T02:46:14.037Z,10.64
2023-05-08T02:48:57.117Z,10.64
2023-05-08T02:51:43.777Z,10.63
2023-05-08T02:54:14.488Z,10.55
2023-05-08T02:56:53.120Z,10.60
2023-05-08T02:59:25.886Z,10.61
2023-05-08T03:01:59.814Z,10.62
2023-05-08T03:04:32.232Z,10.61
2023-05-08T03:06:59.735Z,10.64
2023-05-08T03:09:32.264Z,10.63
2023-05-08T03:12:06.525Z,10.69
2023-05-08T03:14:39.330Z,10.71
2023-05-08T03:17:09.116Z,10.64
2023-05-08T03:19:39.243Z,10.66
2023-05-08T03:22:07.522Z,10.64
2023-05-08T03:24:38.609Z,10.63
2023-05-08T03:27:07.414Z,10.68
2023-05-08T03:29:34.403Z,10.58
2023-05-08T03:32:02.378Z,10.50
2023-05-08T03:34:30.801Z,10.49
2023-05-08T03:36:57.426Z,10.47
2023-05-08T03:39:25.366Z,10.47
2023-05-08T03:41:52.324Z,10.45
2023-05-08T03:44:19.889Z,10.43
2023-05-08T03:46:48.087Z,10.40
2023-05-08T03:49:14.945Z,10.36
2023-05-08T03:51:42.596Z,10.38
2023-05-08T03:54:09.081Z,10.37
2023-05-08T03:56:35.637Z,10.32
2023-05-08T03:59:21.076Z,10.28
2023-05-08T04:01:59.902Z,10.27
2023-05-08T04:04:40.896Z,10.26
2023-05-08T04:07:12.612Z,10.25
2023-05-08T04:09:51.598Z,10.22
2023-05-08T04:12:21.772Z,10.21
2023-05-08T04:14:54.788Z,10.21
2023-05-08T04:17:47.499Z,10.14
2023-05-08T04:20:18.321Z,10.14
2023-05-08T04:22:46.642Z,10.17
2023-05-08T04:25:15.339Z,10.15
2023-05-08T04:27:43.784Z,10.18
2023-05-08T04:30:10.974Z,10.21
2023-05-08T04:32:40.550Z,10.23
2023-05-08T04:35:08.781Z,10.23
2023-05-08T04:37:35.543Z,10.25
2023-05-08T04:40:02.681Z,10.28
2023-05-08T04:42:29.574Z,10.28
2023-05-08T04:44:56.463Z,10.31
2023-05-08T04:47:24.256Z,10.35
2023-05-08T04:49:51.255Z,10.41
2023-05-08T04:52:17.826Z,10.47
2023-05-08T04:54:44.346Z,10.45
2023-05-08T04:57:10.948Z,10.48
2023-05-08T04:59:37.578Z,10.45
2023-05-08T05:02:06.740Z,10.57
2023-05-08T05:04:33.733Z,10.60
2023-05-08T05:07:00.276Z,10.63
2023-05-08T05:09:26.804Z,10.73
2023-05-08T05:11:53.259Z,10.81
2023-05-08T05:14:19.952Z,10.93
2023-05-08T05:16:47.120Z,11.00
2023-05-08T05:19:13.895Z,11.12
2023-05-08T05:21:40.559Z,11.25
2023-05-08T05:24:07.321Z,11.34
2023-05-08T05:26:35.752Z,11.44
2023-05-08T05:29:03.529Z,11.51
2023-05-08T05:31:30.321Z,11.56
2023-05-08T05:33:56.870Z,11.63
2023-05-08T05:36:23.449Z,11.71
2023-05-08T05:38:50.526Z,11.79
2023-05-08T05:41:17.027Z,11.85
2023-05-08T05:43:43.606Z,11.96
2023-05-08T05:46:11.560Z,12.05
2023-05-08T05:48:37.985Z,12.12
2023-05-08T05:51:04.673Z,12.22
2023-05-08T05:53:31.199Z,12.29
2023-05-08T05:55:57.667Z,12.39
2023-05-08T05:58:24.165Z,12.50
2023-05-08T06:00:51.405Z,12.58
2023-05-08T06:03:18.221Z,12.68
2023-05-08T06:05:46.988Z,12.77
2023-05-08T06:08:13.592Z,12.84
2023-05-08T06:10:40.120Z,12.93
2023-05-08T06:13:06.685Z,13.02
2023-05-08T06:15:34.010Z,13.13
2023-05-08T06:18:00.802Z,13.24
2023-05-08T06:20:27.400Z,13.38
2023-05-08T06:22:54.076Z,13.49
2023-05-08T06:25:20.590Z,13.59
2023-05-08T06:27:47.062Z,13.67
2023-05-08T06:30:13.758Z,13.70
2023-05-08T06:32:40.427Z,13.76
2023-05-08T06:35:07.703Z,13.84
2023-05-08T06:37:34.175Z,13.84
2023-05-08T06:40:11.744Z,13.90
2023-05-08T06:42:39.620Z,13.98
2023-05-08T06:45:07.461Z,14.01
2023-05-08T06:47:34.008Z,14.07
2023-05-08T06:50:01.106Z,14.19
2023-05-08T06:52:27.611Z,14.31
2023-05-08T06:54:54.065Z,14.41
2023-05-08T06:57:20.688Z,14.54
2023-05-08T06:59:47.211Z,14.67
2023-05-08T07:02:13.724Z,14.80
2023-05-08T07:04:40.331Z,14.94
2023-05-08T07:07:07.739Z,15.11
2023-05-08T07:09:34.348Z,15.21
2023-05-08T07:12:00.942Z,15.30
2023-05-08T07:14:27.610Z,15.33
2023-05-08T07:16:54.343Z,15.39
2023-05-08T07:19:22.509Z,15.47
2023-05-08T07:21:49.310Z,15.49
2023-05-08T07:24:15.819Z,15.53
2023-05-08T07:26:42.666Z,15.52
2023-05-08T07:29:10.304Z,15.53
2023-05-08T07:31:39.424Z,15.51
2023-05-08T07:34:07.276Z,15.50
2023-05-08T07:36:34.013Z,15.50
2023-05-08T07:39:00.496Z,15.52
2023-05-08T07:41:27.118Z,15.57
2023-05-08T07:43:53.899Z,15.60
2023-05-08T07:46:20.765Z,15.61
2023-05-08T07:48:47.447Z,15.59
2023-05-08T07:51:14.697Z,15.57
2023-05-08T07:53:41.285Z,15.56
2023-05-08T07:56:07.985Z,15.71
2023-05-08T07:58:35.131Z,15.80
2023-05-08T08:01:02.230Z,15.89
2023-05-08T08:03:29.093Z,15.92
2023-05-08T08:05:55.716Z,15.95
2023-05-08T08:08:22.407Z,15.99
2023-05-08T08:10:50.022Z,16.05
2023-05-08T08:13:17.583Z,16.11
2023-05-08T08:15:44.267Z,16.10
2023-05-08T08:18:10.882Z,16.05
2023-05-08T08:20:37.700Z,16.10
2023-05-08T08:23:04.332Z,16.18
2023-05-08T08:25:30.974Z,16.22
2023-05-08T08:27:58.455Z,16.23
2023-05-08T08:30:25.080Z,16.29
2023-05-08T08:32:51.657Z,16.29
2023-05-08T08:35:18.558Z,16.31
2023-05-08T08:37:45.417Z,16.33
2023-05-08T08:40:12.252Z,16.32
2023-05-08T08:42:38.943Z,16.42
2023-05-08T08:45:06.849Z,16.55
2023-05-08T08:47:37.780Z,16.69
2023-05-08T08:50:05.417Z,16.81
2023-05-08T08:52:37.759Z,16.94
2023-05-08T08:55:08.142Z,17.02
2023-05-08T08:57:39.606Z,17.09
2023-05-08T09:00:09.618Z,17.20
2023-05-08T09:02:36.616Z,17.29
2023-05-08T09:05:03.665Z,17.33
2023-05-08T09:07:30.497Z,17.33
2023-05-08T09:09:57.443Z,17.41
2023-05-08T09:12:24.019Z,17.35
2023-05-08T09:14:51.102Z,17.43
2023-05-08T09:17:17.801Z,17.49
2023-05-08T09:19:45.126Z,17.54
2023-05-08T09:22:11.993Z,17.69
2023-05-08T09:24:57.201Z,17.76
2023-05-08T09:27:25.377Z,17.83
2023-05-08T09:30:11.805Z,17.86
2023-05-08T09:32:40.829Z,18.06
2023-05-08T09:35:08.912Z,18.21
2023-05-08T09:37:39.342Z,18.28
2023-05-08T09:40:21.159Z,18.35
2023-05-08T09:42:49.096Z,18.50
2023-05-08T09:45:29.049Z,18.60
2023-05-08T09:47:55.796Z,18.66
2023-05-08T09:50:22.600Z,18.70
2023-05-08T09:52:50.781Z,18.59
2023-05-08T09:55:17.783Z,18.55
2023-05-08T09:58:04.910Z,18.59
2023-05-08T10:00:39.652Z,18.51
2023-05-08T10:03:06.256Z,18.64
2023-05-08T10:05:35.884Z,18.73
2023-05-08T10:08:26.544Z,18.65
2023-05-08T10:10:53.336Z,18.53
2023-05-08T10:13:19.910Z,18.60
2023-05-08T10:15:54.463Z,18.67
2023-05-08T10:18:22.334Z,18.81
2023-05-08T10:20:49.581Z,18.89
2023-05-08T10:23:17.649Z,18.95
2023-05-08T10:25:54.741Z,18.86
2023-05-08T10:28:37.066Z,18.79
2023-05-08T10:31:05.613Z,18.84
2023-05-08T10:33:34.743Z,18.82
2023-05-08T10:36:02.016Z,18.85
2023-05-08T10:38:31.184Z,18.76
2023-05-08T10:41:01.214Z,18.75
2023-05-08T10:43:29.866Z,18.77
2023-05-08T10:45:58.463Z,18.76
2023-05-08T10:48:30.762Z,18.80
2023-05-08T10:51:10.590Z,18.95
2023-05-08T10:53:43.921Z,19.15
2023-05-08T10:56:10.737Z,19.25
2023-05-08T10:58:39.348Z,19.12
2023-05-08T11:01:09.013Z,19.10
2023-05-08T11:03:46.574Z,19.03
2023-05-08T11:06:14.106Z,18.96
2023-05-08T11:08:46.947Z,19.01
2023-05-08T11:11:29.619Z,19.06
2023-05-08T11:14:09.721Z,18.84
2023-05-08T11:16:54.176Z,18.73
2023-05-08T11:19:22.093Z,18.74
2023-05-08T11:22:19.819Z,18.74
2023-05-08T11:24:55.784Z,18.71
2023-05-08T11:27:48.970Z,18.76
2023-05-08T11:30:35.082Z,18.97
2023-05-08T11:33:05.000Z,19.13
2023-05-08T11:35:57.528Z,19.24
2023-05-08T11:38:31.653Z,19.44
2023-05-08T11:41:00.923Z,19.62
2023-05-08T11:43:33.553Z,19.62
2023-05-08T11:46:04.605Z,19.69
2023-05-08T11:48:32.604Z,19.81
2023-05-08T11:51:00.001Z,19.78
2023-05-08T11:53:27.025Z,19.74
2023-05-08T11:55:54.784Z,19.68
2023-05-08T11:58:21.856Z,19.55
2023-05-08T12:00:49.604Z,19.38
2023-05-08T12:03:19.145Z,19.26
2023-05-08T12:05:46.633Z,19.31
2023-05-08T12:08:14.370Z,19.37
2023-05-08T12:10:47.220Z,19.43
2023-05-08T12:13:21.164Z,19.44
2023-05-08T12:15:50.049Z,19.45
2023-05-08T12:18:17.300Z,19.58
2023-05-08T12:20:44.331Z,19.85
2023-05-08T12:23:11.527Z,20.18
2023-05-08T12:25:39.146Z,20.33
2023-05-08T12:28:12.145Z,20.40
2023-05-08T12:30:38.853Z,20.21
2023-05-08T12:33:05.949Z,20.00
2023-05-08T12:35:32.993Z,20.01
2023-05-08T12:38:03.599Z,20.13
2023-05-08T12:40:42.669Z,20.39
2023-05-08T12:43:09.876Z,20.64
2023-05-08T12:45:41.259Z,20.69
2023-05-08T12:48:17.945Z,20.68
2023-05-08T12:50:45.978Z,20.81
2023-05-08T12:53:14.740Z,20.97
2023-05-08T12:55:53.536Z,21.17
2023-05-08T12:58:24.138Z,21.18
2023-05-08T13:00:52.087Z,21.10
2023-05-08T13:03:26.693Z,21.19
2023-05-08T13:05:55.295Z,21.22
2023-05-08T13:08:30.296Z,21.21
2023-05-08T13:10:56.810Z,21.18
2023-05-08T13:13:26.001Z,21.05
2023-05-08T13:15:54.119Z,20.94
2023-05-08T13:18:23.814Z,20.82
2023-05-08T13:20:50.267Z,20.71
2023-05-08T13:23:16.789Z,20.73
2023-05-08T13:25:43.349Z,20.85
2023-05-08T13:28:10.229Z,20.95
2023-05-08T13:30:37.459Z,20.95
2023-05-08T13:33:04.951Z,20.89
2023-05-08T13:35:32.897Z,20.88
2023-05-08T13:37:59.712Z,20.84
2023-05-08T13:40:26.422Z,20.70
2023-05-08T13:42:54.134Z,20.75
2023-05-08T13:45:20.671Z,20.82
2023-05-08T13:47:48.938Z,21.07
2023-05-08T13:50:18.351Z,21.29
2023-05-08T13:52:45.029Z,21.61
2023-05-08T13:55:12.859Z,21.87
2023-05-08T13:57:40.097Z,21.91
2023-05-08T14:00:07.825Z,21.96
2023-05-08T14:02:34.642Z,22.03
2023-05-08T14:05:01.268Z,22.07
2023-05-08T14:07:28.207Z,22.07
2023-05-08T14:09:54.729Z,21.98
2023-05-08T14:12:21.276Z,21.88
2023-05-08T14:14:47.791Z,21.74
2023-05-08T14:17:14.287Z,21.60
2023-05-08T14:19:40.858Z,21.48
2023-05-08T14:22:07.408Z,21.45
2023-05-08T14:24:33.944Z,21.40
2023-05-08T14:27:02.041Z,21.26
2023-05-08T14:29:28.870Z,21.14
2023-05-08T14:31:55.530Z,21.07
2023-05-08T14:34:22.177Z,21.16
2023-05-08T14:36:48.667Z,21.22
2023-05-08T14:39:15.115Z,21.24
2023-05-08T14:41:48.123Z,21.25
2023-05-08T14:44:26.136Z,21.37
2023-05-08T14:46:52.681Z,21.40
2023-05-08T14:49:25.367Z,21.42
2023-05-08T14:51:59.840Z,21.40
2023-05-08T14:54:26.460Z,21.43
2023-05-08T14:56:53.062Z,21.37
2023-05-08T14:59:19.525Z,21.33
2023-05-08T15:01:46.086Z,21.28
2023-05-08T15:04:12.734Z,21.22
2023-05-08T15:06:40.384Z,21.23
2023-05-08T15:09:08.804Z,21.49
2023-05-08T15:11:36.621Z,21.72
2023-05-08T15:14:04.188Z,21.74
2023-05-08T15:16:30.915Z,21.77
2023-05-08T15:18:57.466Z,21.78
2023-05-08T15:21:26.641Z,21.62
2023-05-08T15:23:54.900Z,21.36
2023-05-08T15:26:22.122Z,21.08
2023-05-08T15:28:48.705Z,20.99
2023-05-08T15:31:15.555Z,20.96
2023-05-08T15:33:44.817Z,20.95
2023-05-08T15:36:13.437Z,20.99
2023-05-08T15:38:43.173Z,21.08
2023-05-08T15:41:14.640Z,21.23
2023-05-08T15:43:42.273Z,21.26
2023-05-08T15:46:08.859Z,21.24
2023-05-08T15:48:35.595Z,21.22
2023-05-08T15:51:02.090Z,21.13
2023-05-08T15:53:28.702Z,21.11
2023-05-08T15:55:56.850Z,21.11
2023-05-08T15:58:23.461Z,21.07
2023-05-08T16:00:50.139Z,21.03
2023-05-08T16:03:17.077Z,20.92
2023-05-08T16:05:43.895Z,20.77
2023-05-08T16:08:12.849Z,20.52
2023-05-08T16:10:40.713Z,20.40
2023-05-08T16:13:07.793Z,20.29
2023-05-08T16:15:34.370Z,20.24
2023-05-08T16:18:01.027Z,20.27
2023-05-08T16:20:27.571Z,20.33
2023-05-08T16:22:55.862Z,20.28
2023-05-08T16:25:22.655Z,20.19
2023-05-08T16:27:49.481Z,20.18
2023-05-08T16:30:16.539Z,20.11
2023-05-08T16:32:44.605Z,20.09
2023-05-08T16:35:11.805Z,19.99
2023-05-08T16:37:38.536Z,19.85
2023-05-08T16:40:06.961Z,19.78
2023-05-08T16:42:33.454Z,19.73
2023-05-08T16:44:59.968Z,19.58
2023-05-08T16:47:26.527Z,19.53
2023-05-08T16:49:53.847Z,19.50
2023-05-08T16:52:20.404Z,19.57
2023-05-08T16:54:46.942Z,19.60
2023-05-08T16:57:13.466Z,19.68
2023-05-08T16:59:41.349Z,19.80
2023-05-08T17:02:08.273Z,19.84
2023-05-08T17:04:34.892Z,19.89
2023-05-08T17:07:01.319Z,19.82
2023-05-08T17:09:27.943Z,19.80
2023-05-08T17:11:54.397Z,19.80
2023-05-08T17:14:20.973Z,19.78
2023-05-08T17:16:47.668Z,19.70
2023-05-08T17:19:14.168Z,19.73
2023-05-08T17:21:40.727Z,19.59
2023-05-08T17:24:07.494Z,19.54
2023-05-08T17:26:34.138Z,19.42
2023-05-08T17:29:00.729Z,19.30
2023-05-08T17:31:27.313Z,19.20
2023-05-08T17:33:53.908Z,19.07
2023-05-08T17:36:20.619Z,18.97
2023-05-08T17:38:47.396Z,18.91
2023-05-08T17:41:14.127Z,18.82
2023-05-08T17:43:40.688Z,18.78
2023-05-08T17:46:07.599Z,18.74
2023-05-08T17:48:34.821Z,18.72
2023-05-08T17:51:02.756Z,18.67
2023-05-08T17:53:32.820Z,18.67
2023-05-08T17:55:59.298Z,18.63
2023-05-08T17:58:25.954Z,18.60
2023-05-08T18:00:53.952Z,18.55
2023-05-08T18:03:20.747Z,18.48
2023-05-08T18:05:47.474Z,18.46
2023-05-08T18:08:13.956Z,18.48
2023-05-08T18:10:41.014Z,18.43
2023-05-08T18:13:07.849Z,18.36
2023-05-08T18:15:39.055Z,18.28
2023-05-08T18:18:05.702Z,18.23
2023-05-08T18:20:33.400Z,18.26
2023-05-08T18:22:59.878Z,18.20
2023-05-08T18:25:26.398Z,18.21
2023-05-08T18:27:53.061Z,18.16
2023-05-08T18:30:19.521Z,18.12
2023-05-08T18:32:46.575Z,18.08
2023-05-08T18:35:13.173Z,18.00
2023-05-08T18:37:39.694Z,17.91
2023-05-08T18:40:06.786Z,17.82
2023-05-08T18:42:33.356Z,17.80
2023-05-08T18:45:00.800Z,17.81
2023-05-08T18:47:27.293Z,17.77
2023-05-08T18:49:53.906Z,17.73
2023-05-08T18:52:20.391Z,17.64
2023-05-08T18:54:46.824Z,17.57
2023-05-08T18:57:13.400Z,17.51
2023-05-08T18:59:39.864Z,17.50
2023-05-08T19:02:06.435Z,17.43
2023-05-08T19:04:32.988Z,17.37
2023-05-08T19:07:00.714Z,17.31
2023-05-08T19:09:27.240Z,17.21
2023-05-08T19:11:53.888Z,17.15
2023-05-08T19:14:20.370Z,17.11
2023-05-08T19:16:46.918Z,17.01
2023-05-08T19:19:13.457Z,16.96
2023-05-08T19:21:39.919Z,16.86
2023-05-08T19:24:06.856Z,16.83
2023-05-08T19:26:33.334Z,16.79
2023-05-08T19:28:59.853Z,16.70
2023-05-08T19:31:26.431Z,16.61
2023-05-08T19:33:52.945Z,16.52
2023-05-08T19:36:19.455Z,16.48
2023-05-08T19:38:45.954Z,16.45
2023-05-08T19:41:12.434Z,16.37
2023-05-08T19:43:38.916Z,16.27
2023-05-08T19:46:05.570Z,16.23
2023-05-08T19:48:32.123Z,16.18
2023-05-08T19:51:05.857Z,16.03
2023-05-08T19:53:32.326Z,15.98
2023-05-08T19:55:58.779Z,15.88
2023-05-08T19:58:25.438Z,15.85
2023-05-08T20:00:52.162Z,15.76
2023-05-08T20:03:19.382Z,15.74
2023-05-08T20:05:46.049Z,15.62
2023-05-08T20:08:12.587Z,15.60
2023-05-08T20:10:39.117Z,15.55
2023-05-08T20:13:05.663Z,15.50
2023-05-08T20:15:32.250Z,15.46
2023-05-08T20:17:59.824Z,15.41
2023-05-08T20:20:27.272Z,15.30
2023-05-08T20:22:53.698Z,15.33
2023-05-08T20:25:20.216Z,15.32
2023-05-08T20:27:46.753Z,15.31
2023-05-08T20:30:13.624Z,15.32
2023-05-08T20:32:40.413Z,15.35
2023-05-08T20:35:07.581Z,15.35
2023-05-08T20:37:34.065Z,15.34
2023-05-08T20:40:01.848Z,15.32
2023-05-08T20:42:28.307Z,15.32
2023-05-08T20:44:54.892Z,15.29
2023-05-08T20:47:22.609Z,15.30
2023-05-08T20:49:49.530Z,15.32
2023-05-08T20:52:16.019Z,15.33
2023-05-08T20:54:44.439Z,15.34
2023-05-08T20:57:12.954Z,15.30
2023-05-08T20:59:39.435Z,15.32
2023-05-08T21:02:06.016Z,15.32
2023-05-08T21:04:32.502Z,15.32
2023-05-08T21:06:59.140Z,15.30
2023-05-08T21:09:25.682Z,15.29
2023-05-08T21:11:52.164Z,15.32
2023-05-08T21:14:18.628Z,15.30
2023-05-08T21:16:45.174Z,15.29
2023-05-08T21:19:13.922Z,15.29
2023-05-08T21:21:40.598Z,15.24
2023-05-08T21:24:07.216Z,15.20
2023-05-08T21:26:33.658Z,15.15
2023-05-08T21:29:00.582Z,15.14
2023-05-08T21:31:28.763Z,15.16
2023-05-08T21:33:55.457Z,15.09
2023-05-08T21:36:21.975Z,15.07
2023-05-08T21:38:51.126Z,15.07
2023-05-08T21:41:17.578Z,15.02
2023-05-08T21:43:44.064Z,14.98
2023-05-08T21:46:10.719Z,14.95
2023-05-08T21:48:37.350Z,14.93
2023-05-08T21:51:05.970Z,14.89
2023-05-08T21:53:32.727Z,14.86
2023-05-08T21:55:59.791Z,14.87
2023-05-08T21:58:26.416Z,14.86
2023-05-08T22:00:52.919Z,14.84
2023-05-08T22:03:19.469Z,14.82
2023-05-08T22:05:45.957Z,14.76
2023-05-08T22:08:12.531Z,14.78
2023-05-08T22:10:39.053Z,14.72
2023-05-08T22:13:06.508Z,14.75
2023-05-08T22:15:33.558Z,14.75
2023-05-08T22:18:02.412Z,14.74
2023-05-08T22:20:29.250Z,14.75
2023-05-08T22:22:56.272Z,14.77
2023-05-08T22:25:22.807Z,14.76
2023-05-08T22:27:49.293Z,14.72
2023-05-08T22:30:15.885Z,14.71
2023-05-08T22:32:42.827Z,14.67
2023-05-08T22:35:09.497Z,14.66
2023-05-08T22:37:36.798Z,14.63
2023-05-08T22:40:03.475Z,14.63
2023-05-08T22:42:30.011Z,14.62
2023-05-08T22:44:56.897Z,14.58
2023-05-08T22:47:23.481Z,14.55
2023-05-08T22:49:50.365Z,14.56
2023-05-08T22:52:17.048Z,14.54
2023-05-08T22:54:43.517Z,14.54
2023-05-08T22:57:09.972Z,14.48
2023-05-08T22:59:36.645Z,14.50
2023-05-08T23:02:03.232Z,14.43
2023-05-08T23:04:29.729Z,14.38
2023-05-08T23:06:56.605Z,14.41
2023-05-08T23:09:23.086Z,14.42
2023-05-08T23:11:50.030Z,14.45
2023-05-08T23:14:16.567Z,14.44
2023-05-08T23:16:43.112Z,14.43
2023-05-08T23:19:10.091Z,14.44
2023-05-08T23:21:36.761Z,14.39
2023-05-08T23:24:04.602Z,14.33
2023-05-08T23:26:31.066Z,14.32
2023-05-08T23:28:57.503Z,14.32
2023-05-08T23:31:24.069Z,14.30
2023-05-08T23:33:50.634Z,14.31
2023-05-08T23:36:17.154Z,14.30
2023-05-08T23:38:43.812Z,14.28
2023-05-08T23:41:10.988Z,14.28
2023-05-08T23:43:37.564Z,14.24
2023-05-08T23:46:04.086Z,14.24
2023-05-08T23:48:30.578Z,14.21
2023-05-08T23:50:57.202Z,14.16
2023-05-08T23:53:23.887Z,14.15
2023-05-08T23:55:53.181Z,14.12
2023-05-08T23:58:19.755Z,14.12
